sensor_id;sensor_type;location;lat;lon;timestamp;pressure;altitude;pressure_sealevel;temperature;humidity
58973;BME280;44750;52.040;7.472;2023-02-07T00:02:21;102655.63;;;0.29;60.50
58973;BME280;44750;52.040;7.472;2023-02-07T00:07:21;102641.56;;;0.24;60.75
58973;BME280;44750;52.040;7.472;2023-02-07T00:12:22;102645.28;;;0.16;60.11
58973;BME280;44750;52.040;7.472;2023-02-07T00:17:22;102664.72;;;0.22;59.72
58973;BME280;44750;52.040;7.472;2023-02-07T00:22:22;102651.44;;;0.19;60.03
58973;BME280;44750;52.040;7.472;2023-02-07T00:27:22;102648.03;;;0.13;60.11
58973;BME280;44750;52.040;7.472;2023-02-07T00:32:23;102666.38;;;0.26;59.39
58973;BME280;44750;52.040;7.472;2023-02-07T00:37:23;102632.78;;;0.20;59.89
58973;BME280;44750;52.040;7.472;2023-02-07T00:42:23;102629.31;;;0.16;60.58
58973;BME280;44750;52.040;7.472;2023-02-07T00:47:23;102629.28;;;0.18;61.30
58973;BME280;44750;52.040;7.472;2023-02-07T00:52:24;102598.53;;;0.05;62.35
58973;BME280;44750;52.040;7.472;2023-02-07T00:57:24;102604.81;;;0.02;63.25
58973;BME280;44750;52.040;7.472;2023-02-07T01:02:24;102587.31;;;-0.08;64.27
58973;BME280;44750;52.040;7.472;2023-02-07T01:07:24;102584.97;;;-0.21;65.41
58973;BME280;44750;52.040;7.472;2023-02-07T01:12:25;102596.47;;;-0.19;64.79
58973;BME280;44750;52.040;7.472;2023-02-07T01:17:25;102583.38;;;-0.29;65.63
58973;BME280;44750;52.040;7.472;2023-02-07T01:22:26;102608.78;;;-0.14;64.92
58973;BME280;44750;52.040;7.472;2023-02-07T01:27:27;102614.28;;;-0.22;65.84
58973;BME280;44750;52.040;7.472;2023-02-07T01:32:27;102603.72;;;-0.25;66.62
58973;BME280;44750;52.040;7.472;2023-02-07T01:37:28;102613.38;;;-0.21;67.67
58973;BME280;44750;52.040;7.472;2023-02-07T01:42:28;102620.19;;;-0.11;67.36
58973;BME280;44750;52.040;7.472;2023-02-07T01:47:29;102601.56;;;-0.11;68.33
58973;BME280;44750;52.040;7.472;2023-02-07T01:52:32;102596.25;;;-0.11;69.39
58973;BME280;44750;52.040;7.472;2023-02-07T01:57:35;102583.06;;;-0.15;71.15
58973;BME280;44750;52.040;7.472;2023-02-07T02:02:36;102565.50;;;-0.24;72.62
58973;BME280;44750;52.040;7.472;2023-02-07T02:07:38;102564.56;;;-0.22;73.32
58973;BME280;44750;52.040;7.472;2023-02-07T02:23:21;102490.91;;;-0.56;78.33
58973;BME280;44750;52.040;7.472;2023-02-07T02:28:41;102481.34;;;-0.64;78.99
58973;BME280;44750;52.040;7.472;2023-02-07T02:44:57;102498.56;;;-0.79;78.12
58973;BME280;44750;52.040;7.472;2023-02-07T02:49:56;102505.59;;;-0.77;77.03
58973;BME280;44750;52.040;7.472;2023-02-07T02:54:56;102516.09;;;-0.72;76.48
58973;BME280;44750;52.040;7.472;2023-02-07T03:00:11;102494.94;;;-0.77;77.15
58973;BME280;44750;52.040;7.472;2023-02-07T03:11:08;102483.66;;;-0.88;77.87
58973;BME280;44750;52.040;7.472;2023-02-07T03:16:18;102497.13;;;-0.94;77.30
58973;BME280;44750;52.040;7.472;2023-02-07T03:21:27;102496.31;;;-0.98;76.52
58973;BME280;44750;52.040;7.472;2023-02-07T03:26:31;102499.84;;;-0.97;75.78
58973;BME280;44750;52.040;7.472;2023-02-07T03:31:33;102491.94;;;-1.01;75.73
58973;BME280;44750;52.040;7.472;2023-02-07T03:36:48;102517.38;;;-0.89;74.64
58973;BME280;44750;52.040;7.472;2023-02-07T03:41:57;102493.72;;;-1.01;75.18
58973;BME280;44750;52.040;7.472;2023-02-07T03:46:58;102514.59;;;-0.82;74.32
58973;BME280;44750;52.040;7.472;2023-02-07T03:51:59;102511.03;;;-0.83;74.78
58973;BME280;44750;52.040;7.472;2023-02-07T03:56:59;102497.69;;;-0.81;75.80
58973;BME280;44750;52.040;7.472;2023-02-07T04:01:59;102486.16;;;-0.80;76.74
58973;BME280;44750;52.040;7.472;2023-02-07T04:07:00;102498.41;;;-0.73;77.22
58973;BME280;44750;52.040;7.472;2023-02-07T04:12:00;102490.38;;;-0.70;78.10
58973;BME280;44750;52.040;7.472;2023-02-07T04:17:00;102487.56;;;-0.64;79.03
58973;BME280;44750;52.040;7.472;2023-02-07T04:22:01;102477.75;;;-0.62;80.51
58973;BME280;44750;52.040;7.472;2023-02-07T04:27:01;102488.06;;;-0.49;81.37
58973;BME280;44750;52.040;7.472;2023-02-07T04:32:01;102455.59;;;-0.62;83.62
58973;BME280;44750;52.040;7.472;2023-02-07T04:37:01;102459.13;;;-0.62;84.53
58973;BME280;44750;52.040;7.472;2023-02-07T04:42:02;102470.53;;;-0.57;85.55
58973;BME280;44750;52.040;7.472;2023-02-07T04:47:02;102467.00;;;-0.57;87.02
58973;BME280;44750;52.040;7.472;2023-02-07T04:52:02;102460.97;;;-0.64;88.50
58973;BME280;44750;52.040;7.472;2023-02-07T04:57:03;102437.25;;;-0.73;89.49
58973;BME280;44750;52.040;7.472;2023-02-07T05:02:03;102448.84;;;-0.77;90.83
58973;BME280;44750;52.040;7.472;2023-02-07T05:07:04;102419.00;;;-0.89;91.76
58973;BME280;44750;52.040;7.472;2023-02-07T05:12:04;102419.91;;;-0.90;92.72
58973;BME280;44750;52.040;7.472;2023-02-07T05:17:04;102437.34;;;-0.78;93.34
58973;BME280;44750;52.040;7.472;2023-02-07T05:22:04;102442.53;;;-0.72;93.76
58973;BME280;44750;52.040;7.472;2023-02-07T05:27:05;102447.03;;;-0.75;94.54
58973;BME280;44750;52.040;7.472;2023-02-07T05:32:05;102415.50;;;-0.91;95.92
58973;BME280;44750;52.040;7.472;2023-02-07T05:37:05;102400.06;;;-1.12;97.71
58973;BME280;44750;52.040;7.472;2023-02-07T05:42:05;102405.38;;;-1.12;98.63
58973;BME280;44750;52.040;7.472;2023-02-07T05:47:07;102410.56;;;-1.06;98.72
58973;BME280;44750;52.040;7.472;2023-02-07T05:52:07;102406.28;;;-1.12;99.95
58973;BME280;44750;52.040;7.472;2023-02-07T05:57:08;102409.88;;;-1.14;100.00
58973;BME280;44750;52.040;7.472;2023-02-07T06:02:08;102375.75;;;-1.33;100.00
58973;BME280;44750;52.040;7.472;2023-02-07T06:07:08;102412.53;;;-1.14;100.00
58973;BME280;44750;52.040;7.472;2023-02-07T06:12:09;102409.97;;;-1.19;100.00
58973;BME280;44750;52.040;7.472;2023-02-07T06:17:10;102413.56;;;-1.22;100.00
58973;BME280;44750;52.040;7.472;2023-02-07T06:22:10;102402.13;;;-1.24;100.00
58973;BME280;44750;52.040;7.472;2023-02-07T06:27:10;102395.16;;;-1.31;100.00
58973;BME280;44750;52.040;7.472;2023-02-07T06:32:11;102401.28;;;-1.27;100.00
58973;BME280;44750;52.040;7.472;2023-02-07T06:37:11;102418.22;;;-1.31;100.00
58973;BME280;44750;52.040;7.472;2023-02-07T06:42:11;102420.22;;;-1.41;100.00
58973;BME280;44750;52.040;7.472;2023-02-07T06:47:11;102423.69;;;-1.39;100.00
58973;BME280;44750;52.040;7.472;2023-02-07T06:52:12;102428.19;;;-1.41;100.00
58973;BME280;44750;52.040;7.472;2023-02-07T06:57:12;102428.94;;;-1.35;100.00
58973;BME280;44750;52.040;7.472;2023-02-07T07:02:12;102441.13;;;-1.26;100.00
58973;BME280;44750;52.040;7.472;2023-02-07T07:07:14;102423.41;;;-1.27;100.00
58973;BME280;44750;52.040;7.472;2023-02-07T07:12:14;102435.72;;;-1.21;100.00
58973;BME280;44750;52.040;7.472;2023-02-07T07:17:14;102439.34;;;-1.27;100.00
58973;BME280;44750;52.040;7.472;2023-02-07T07:22:15;102409.56;;;-1.40;100.00
58973;BME280;44750;52.040;7.472;2023-02-07T07:27:15;102430.78;;;-1.38;100.00
58973;BME280;44750;52.040;7.472;2023-02-07T07:32:15;102426.34;;;-1.39;100.00
58973;BME280;44750;52.040;7.472;2023-02-07T07:37:15;102445.56;;;-1.26;100.00
58973;BME280;44750;52.040;7.472;2023-02-07T07:42:16;102454.34;;;-1.24;100.00
58973;BME280;44750;52.040;7.472;2023-02-07T07:47:16;102467.41;;;-1.13;100.00
58973;BME280;44750;52.040;7.472;2023-02-07T07:52:16;102473.50;;;-1.08;100.00
58973;BME280;44750;52.040;7.472;2023-02-07T07:57:17;102495.25;;;-0.91;100.00
58973;BME280;44750;52.040;7.472;2023-02-07T08:02:17;102517.78;;;-0.66;100.00
58973;BME280;44750;52.040;7.472;2023-02-07T08:07:18;102512.97;;;-0.52;99.88
58973;BME280;44750;52.040;7.472;2023-02-07T08:12:18;102526.59;;;-0.28;99.33
58973;BME280;44750;52.040;7.472;2023-02-07T08:17:18;102518.50;;;-0.24;100.00
58973;BME280;44750;52.040;7.472;2023-02-07T08:22:18;102525.69;;;0.07;99.39
58973;BME280;44750;52.040;7.472;2023-02-07T08:27:19;102515.59;;;0.20;99.53
58973;BME280;44750;52.040;7.472;2023-02-07T08:32:19;102496.84;;;0.23;100.00
58973;BME280;44750;52.040;7.472;2023-02-07T08:37:19;102503.69;;;0.32;100.00
58973;BME280;44750;52.040;7.472;2023-02-07T08:42:20;102500.06;;;0.36;100.00
58973;BME280;44750;52.040;7.472;2023-02-07T08:47:21;102511.97;;;0.54;100.00
58973;BME280;44750;52.040;7.472;2023-02-07T08:52:22;102530.56;;;0.87;100.00
58973;BME280;44750;52.040;7.472;2023-02-07T08:57:22;102499.25;;;0.64;100.00
58973;BME280;44750;52.040;7.472;2023-02-07T09:02:22;102489.91;;;0.80;100.00
58973;BME280;44750;52.040;7.472;2023-02-07T09:07:23;102525.00;;;1.25;100.00
58973;BME280;44750;52.040;7.472;2023-02-07T09:12:23;102514.75;;;1.39;100.00
58973;BME280;44750;52.040;7.472;2023-02-07T09:17:23;102503.91;;;1.45;100.00
58973;BME280;44750;52.040;7.472;2023-02-07T09:22:24;102502.88;;;1.49;100.00
58973;BME280;44750;52.040;7.472;2023-02-07T09:27:24;102442.63;;;1.14;100.00
58973;BME280;44750;52.040;7.472;2023-02-07T09:32:24;102514.59;;;1.72;100.00
58973;BME280;44750;52.040;7.472;2023-02-07T09:37:24;102511.78;;;2.02;100.00
58973;BME280;44750;52.040;7.472;2023-02-07T09:48:04;102501.97;;;2.28;100.00
58973;BME280;44750;52.040;7.472;2023-02-07T09:58:14;102477.97;;;2.26;100.00
58973;BME280;44750;52.040;7.472;2023-02-07T10:03:19;102467.50;;;2.45;100.00
58973;BME280;44750;52.040;7.472;2023-02-07T10:08:20;102466.13;;;2.57;100.00
58973;BME280;44750;52.040;7.472;2023-02-07T10:18:46;102429.09;;;2.48;100.00
58973;BME280;44750;52.040;7.472;2023-02-07T10:29:19;102470.13;;;2.71;100.00
58973;BME280;44750;52.040;7.472;2023-02-07T10:34:27;102457.69;;;2.92;100.00
58973;BME280;44750;52.040;7.472;2023-02-07T10:39:42;102448.38;;;3.02;100.00
58973;BME280;44750;52.040;7.472;2023-02-07T10:44:44;102438.44;;;3.06;100.00
58973;BME280;44750;52.040;7.472;2023-02-07T10:49:50;102442.97;;;3.26;100.00
58973;BME280;44750;52.040;7.472;2023-02-07T10:54:57;102400.66;;;3.13;100.00
58973;BME280;44750;52.040;7.472;2023-02-07T11:00:20;102410.72;;;3.29;100.00
58973;BME280;44750;52.040;7.472;2023-02-07T11:10:24;102376.75;;;3.31;100.00
58973;BME280;44750;52.040;7.472;2023-02-07T11:15:45;102358.78;;;3.33;100.00
58973;BME280;44750;52.040;7.472;2023-02-07T11:20:48;102344.47;;;3.34;100.00
58973;BME280;44750;52.040;7.472;2023-02-07T11:25:52;102357.53;;;3.42;100.00
58973;BME280;44750;52.040;7.472;2023-02-07T11:30:56;102358.16;;;3.48;100.00
58973;BME280;44750;52.040;7.472;2023-02-07T11:41:24;102354.31;;;3.54;100.00
58973;BME280;44750;52.040;7.472;2023-02-07T11:51:31;102341.69;;;3.58;100.00
58973;BME280;44750;52.040;7.472;2023-02-07T11:56:35;102340.28;;;3.70;100.00
58973;BME280;44750;52.040;7.472;2023-02-07T12:01:36;102347.63;;;3.64;100.00
58973;BME280;44750;52.040;7.472;2023-02-07T12:06:50;102365.06;;;3.94;100.00
58973;BME280;44750;52.040;7.472;2023-02-07T12:11:54;102348.34;;;3.89;100.00
58973;BME280;44750;52.040;7.472;2023-02-07T12:16:58;102355.50;;;3.88;100.00
58973;BME280;44750;52.040;7.472;2023-02-07T12:22:17;102373.53;;;4.24;100.00
58973;BME280;44750;52.040;7.472;2023-02-07T12:27:24;102329.41;;;4.12;100.00
58973;BME280;44750;52.040;7.472;2023-02-07T12:43:11;102321.94;;;4.38;100.00
58973;BME280;44750;52.040;7.472;2023-02-07T12:54:04;102322.25;;;4.32;100.00
58973;BME280;44750;52.040;7.472;2023-02-07T13:10:22;102336.44;;;4.34;100.00
58973;BME280;44750;52.040;7.472;2023-02-07T13:15:44;102339.59;;;4.42;100.00
58973;BME280;44750;52.040;7.472;2023-02-07T13:20:56;102336.28;;;4.37;100.00
58973;BME280;44750;52.040;7.472;2023-02-07T13:26:13;102330.22;;;4.33;100.00
58973;BME280;44750;52.040;7.472;2023-02-07T13:31:38;102349.91;;;4.51;100.00
58973;BME280;44750;52.040;7.472;2023-02-07T13:36:47;102364.53;;;4.63;100.00
58973;BME280;44750;52.040;7.472;2023-02-07T14:02:41;102336.06;;;4.42;100.00
58973;BME280;44750;52.040;7.472;2023-02-07T14:07:49;102359.75;;;4.70;100.00
58973;BME280;44750;52.040;7.472;2023-02-07T14:12:53;102352.59;;;4.71;100.00
58973;BME280;44750;52.040;7.472;2023-02-07T14:18:00;102324.31;;;4.63;100.00
58973;BME280;44750;52.040;7.472;2023-02-07T14:33:38;102319.66;;;4.67;100.00
58973;BME280;44750;52.040;7.472;2023-02-07T14:38:58;102325.41;;;4.59;100.00
58973;BME280;44750;52.040;7.472;2023-02-07T14:44:00;102306.13;;;4.51;100.00
58973;BME280;44750;52.040;7.472;2023-02-07T14:54:34;102466.63;;;4.60;100.00
58973;BME280;44750;52.040;7.472;2023-02-07T14:59:44;102491.34;;;4.67;100.00
58973;BME280;44750;52.040;7.472;2023-02-07T15:04:46;102480.22;;;4.56;100.00
58973;BME280;44750;52.040;7.472;2023-02-07T15:09:46;102489.34;;;4.51;100.00
58973;BME280;44750;52.040;7.472;2023-02-07T15:14:46;102493.13;;;4.47;100.00
58973;BME280;44750;52.040;7.472;2023-02-07T15:19:47;102492.03;;;4.51;100.00
58973;BME280;44750;52.040;7.472;2023-02-07T15:24:47;102465.88;;;4.38;100.00
58973;BME280;44750;52.040;7.472;2023-02-07T15:29:58;102477.31;;;4.41;100.00
58973;BME280;44750;52.040;7.472;2023-02-07T15:35:12;102473.81;;;4.39;100.00
58973;BME280;44750;52.040;7.472;2023-02-07T15:40:18;102470.69;;;4.29;100.00
58973;BME280;44750;52.040;7.472;2023-02-07T15:45:29;102492.66;;;4.17;100.00
58973;BME280;44750;52.040;7.472;2023-02-07T15:50:30;102499.53;;;4.24;100.00
58973;BME280;44750;52.040;7.472;2023-02-07T15:55:44;102492.56;;;4.20;100.00
58973;BME280;44750;52.040;7.472;2023-02-07T16:00:45;102475.22;;;4.08;100.00
58973;BME280;44750;52.040;7.472;2023-02-07T16:05:46;102471.00;;;4.03;100.00
58973;BME280;44750;52.040;7.472;2023-02-07T16:10:47;102472.09;;;3.97;100.00
58973;BME280;44750;52.040;7.472;2023-02-07T16:15:58;102463.28;;;3.95;100.00
58973;BME280;44750;52.040;7.472;2023-02-07T16:20:59;102463.63;;;3.87;100.00
58973;BME280;44750;52.040;7.472;2023-02-07T16:25:59;102464.88;;;3.78;100.00
58973;BME280;44750;52.040;7.472;2023-02-07T16:31:00;102475.84;;;3.72;100.00
58973;BME280;44750;52.040;7.472;2023-02-07T16:36:01;102475.19;;;3.67;100.00
58973;BME280;44750;52.040;7.472;2023-02-07T16:41:04;102484.28;;;3.63;100.00
58973;BME280;44750;52.040;7.472;2023-02-07T16:46:05;102482.16;;;3.49;100.00
58973;BME280;44750;52.040;7.472;2023-02-07T16:51:05;102501.34;;;3.38;100.00
58973;BME280;44750;52.040;7.472;2023-02-07T16:56:07;102509.69;;;3.30;100.00
58973;BME280;44750;52.040;7.472;2023-02-07T17:01:15;102501.34;;;3.16;100.00
58973;BME280;44750;52.040;7.472;2023-02-07T17:06:18;102513.34;;;3.06;100.00
58973;BME280;44750;52.040;7.472;2023-02-07T17:11:21;102530.31;;;3.05;100.00
58973;BME280;44750;52.040;7.472;2023-02-07T17:16:23;102533.28;;;2.97;100.00
58973;BME280;44750;52.040;7.472;2023-02-07T17:21:24;102537.16;;;2.90;100.00
58973;BME280;44750;52.040;7.472;2023-02-07T17:26:27;102550.75;;;2.83;100.00
58973;BME280;44750;52.040;7.472;2023-02-07T17:31:28;102551.78;;;2.79;100.00
58973;BME280;44750;52.040;7.472;2023-02-07T17:36:28;102560.97;;;2.72;100.00
58973;BME280;44750;52.040;7.472;2023-02-07T17:41:29;102558.38;;;2.71;100.00
58973;BME280;44750;52.040;7.472;2023-02-07T17:46:29;102589.34;;;2.76;100.00
58973;BME280;44750;52.040;7.472;2023-02-07T17:51:29;102560.41;;;2.62;100.00
58973;BME280;44750;52.040;7.472;2023-02-07T17:56:31;102569.97;;;2.70;100.00
58973;BME280;44750;52.040;7.472;2023-02-07T18:01:32;102571.75;;;2.69;100.00
58973;BME280;44750;52.040;7.472;2023-02-07T18:06:32;102555.13;;;2.61;100.00
58973;BME280;44750;52.040;7.472;2023-02-07T18:11:32;102558.97;;;2.54;100.00
58973;BME280;44750;52.040;7.472;2023-02-07T18:16:33;102582.91;;;2.57;100.00
58973;BME280;44750;52.040;7.472;2023-02-07T18:21:34;102577.69;;;2.54;100.00
58973;BME280;44750;52.040;7.472;2023-02-07T18:26:34;102581.28;;;2.53;100.00
58973;BME280;44750;52.040;7.472;2023-02-07T18:31:35;102588.38;;;2.54;100.00
58973;BME280;44750;52.040;7.472;2023-02-07T18:36:35;102579.44;;;2.55;100.00
58973;BME280;44750;52.040;7.472;2023-02-07T18:41:35;102573.06;;;2.57;100.00
58973;BME280;44750;52.040;7.472;2023-02-07T18:46:35;102563.41;;;2.55;100.00
58973;BME280;44750;52.040;7.472;2023-02-07T18:51:36;102562.56;;;2.53;100.00
58973;BME280;44750;52.040;7.472;2023-02-07T18:56:36;102547.84;;;2.41;100.00
58973;BME280;44750;52.040;7.472;2023-02-07T19:01:36;102547.03;;;2.39;100.00
58973;BME280;44750;52.040;7.472;2023-02-07T19:06:37;102565.56;;;2.43;100.00
58973;BME280;44750;52.040;7.472;2023-02-07T19:11:38;102554.75;;;2.21;100.00
58973;BME280;44750;52.040;7.472;2023-02-07T19:16:38;102553.41;;;2.09;100.00
58973;BME280;44750;52.040;7.472;2023-02-07T19:21:39;102572.31;;;2.03;100.00
58973;BME280;44750;52.040;7.472;2023-02-07T19:26:39;102567.88;;;2.02;100.00
58973;BME280;44750;52.040;7.472;2023-02-07T19:31:39;102568.78;;;2.01;100.00
58973;BME280;44750;52.040;7.472;2023-02-07T19:36:40;102558.66;;;1.86;100.00
58973;BME280;44750;52.040;7.472;2023-02-07T19:41:41;102566.72;;;1.84;100.00
58973;BME280;44750;52.040;7.472;2023-02-07T19:46:41;102551.19;;;1.69;100.00
58973;BME280;44750;52.040;7.472;2023-02-07T19:51:42;102552.16;;;1.66;100.00
58973;BME280;44750;52.040;7.472;2023-02-07T19:56:42;102552.25;;;1.63;100.00
58973;BME280;44750;52.040;7.472;2023-02-07T20:01:42;102559.44;;;1.61;100.00
58973;BME280;44750;52.040;7.472;2023-02-07T20:06:42;102549.06;;;1.52;100.00
58973;BME280;44750;52.040;7.472;2023-02-07T20:11:43;102557.13;;;1.50;100.00
58973;BME280;44750;52.040;7.472;2023-02-07T20:16:43;102563.31;;;1.50;100.00
58973;BME280;44750;52.040;7.472;2023-02-07T20:21:43;102571.28;;;1.52;100.00
58973;BME280;44750;52.040;7.472;2023-02-07T20:26:43;102554.78;;;1.39;100.00
58973;BME280;44750;52.040;7.472;2023-02-07T20:31:45;102567.28;;;1.39;100.00
58973;BME280;44750;52.040;7.472;2023-02-07T20:36:46;102563.94;;;1.30;100.00
58973;BME280;44750;52.040;7.472;2023-02-07T20:41:47;102558.72;;;1.27;100.00
58973;BME280;44750;52.040;7.472;2023-02-07T20:46:48;102568.63;;;1.22;100.00
58973;BME280;44750;52.040;7.472;2023-02-07T20:51:51;102577.44;;;1.26;100.00
58973;BME280;44750;52.040;7.472;2023-02-07T20:56:53;102588.06;;;1.27;100.00
58973;BME280;44750;52.040;7.472;2023-02-07T21:01:54;102590.88;;;1.23;100.00
58973;BME280;44750;52.040;7.472;2023-02-07T21:06:54;102585.72;;;1.16;100.00
58973;BME280;44750;52.040;7.472;2023-02-07T21:11:54;102596.28;;;1.20;100.00
58973;BME280;44750;52.040;7.472;2023-02-07T21:16:57;102587.47;;;1.17;100.00
58973;BME280;44750;52.040;7.472;2023-02-07T21:21:58;102590.22;;;1.14;100.00
58973;BME280;44750;52.040;7.472;2023-02-07T21:26:58;102594.81;;;1.09;100.00
58973;BME280;44750;52.040;7.472;2023-02-07T21:31:59;102598.53;;;1.04;100.00
58973;BME280;44750;52.040;7.472;2023-02-07T21:36:59;102607.50;;;1.01;100.00
58973;BME280;44750;52.040;7.472;2023-02-07T21:41:59;102605.13;;;0.90;100.00
58973;BME280;44750;52.040;7.472;2023-02-07T21:46:59;102607.84;;;0.89;100.00
58973;BME280;44750;52.040;7.472;2023-02-07T21:52:00;102594.66;;;0.84;100.00
58973;BME280;44750;52.040;7.472;2023-02-07T21:57:00;102596.50;;;0.82;100.00
58973;BME280;44750;52.040;7.472;2023-02-07T22:02:00;102595.78;;;0.75;100.00
58973;BME280;44750;52.040;7.472;2023-02-07T22:07:00;102611.63;;;0.80;100.00
58973;BME280;44750;52.040;7.472;2023-02-07T22:12:01;102602.03;;;0.74;100.00
58973;BME280;44750;52.040;7.472;2023-02-07T22:17:01;102599.38;;;0.74;100.00
58973;BME280;44750;52.040;7.472;2023-02-07T22:22:01;102597.59;;;0.73;100.00
58973;BME280;44750;52.040;7.472;2023-02-07T22:27:01;102600.97;;;0.81;100.00
58973;BME280;44750;52.040;7.472;2023-02-07T22:32:02;102606.34;;;0.78;100.00
58973;BME280;44750;52.040;7.472;2023-02-07T22:37:02;102609.88;;;0.80;100.00
58973;BME280;44750;52.040;7.472;2023-02-07T22:42:02;102588.69;;;0.74;100.00
58973;BME280;44750;52.040;7.472;2023-02-07T22:47:03;102597.72;;;0.70;100.00
58973;BME280;44750;52.040;7.472;2023-02-07T22:52:03;102587.28;;;0.61;100.00
58973;BME280;44750;52.040;7.472;2023-02-07T22:57:03;102574.97;;;0.57;100.00
58973;BME280;44750;52.040;7.472;2023-02-07T23:02:04;102578.84;;;0.45;100.00
58973;BME280;44750;52.040;7.472;2023-02-07T23:07:04;102556.41;;;0.21;100.00
58973;BME280;44750;52.040;7.472;2023-02-07T23:12:04;102577.72;;;0.21;100.00
58973;BME280;44750;52.040;7.472;2023-02-07T23:17:05;102586.09;;;0.05;100.00
58973;BME280;44750;52.040;7.472;2023-02-07T23:22:05;102607.25;;;0.11;100.00
58973;BME280;44750;52.040;7.472;2023-02-07T23:27:05;102617.84;;;0.13;100.00
58973;BME280;44750;52.040;7.472;2023-02-07T23:32:06;102606.66;;;-0.02;100.00
58973;BME280;44750;52.040;7.472;2023-02-07T23:37:06;102625.88;;;0.11;100.00
58973;BME280;44750;52.040;7.472;2023-02-07T23:42:06;102618.81;;;0.10;100.00
58973;BME280;44750;52.040;7.472;2023-02-07T23:47:06;102618.09;;;0.04;100.00
58973;BME280;44750;52.040;7.472;2023-02-07T23:52:07;102618.81;;;0.10;100.00
58973;BME280;44750;52.040;7.472;2023-02-07T23:57:07;102618.81;;;0.10;100.00
